createdAt,value
2022-09-28T00:00:33.384Z,82.77
2022-09-28T00:02:59.778Z,82.79
2022-09-28T00:05:26.055Z,82.53
2022-09-28T00:07:52.253Z,82.88
2022-09-28T00:10:18.407Z,82.73
2022-09-28T00:12:44.569Z,82.80
2022-09-28T00:15:10.732Z,82.63
2022-09-28T00:17:37.019Z,82.44
2022-09-28T00:20:03.156Z,82.53
2022-09-28T00:22:29.306Z,82.30
2022-09-28T00:24:55.525Z,82.51
2022-09-28T00:27:21.689Z,82.66
2022-09-28T00:29:47.824Z,82.14
2022-09-28T00:32:14.019Z,82.62
2022-09-28T00:34:40.109Z,82.25
2022-09-28T00:37:06.202Z,82.33
2022-09-28T00:39:32.292Z,82.19
2022-09-28T00:41:58.399Z,82.28
2022-09-28T00:44:24.481Z,82.18
2022-09-28T00:46:50.607Z,82.27
2022-09-28T00:49:16.747Z,82.36
2022-09-28T00:51:42.860Z,82.21
2022-09-28T00:54:09.323Z,82.38
2022-09-28T00:56:35.444Z,82.12
2022-09-28T00:59:01.541Z,82.17
2022-09-28T01:01:27.726Z,82.33
2022-09-28T01:03:53.853Z,82.27
2022-09-28T01:06:19.934Z,81.94
2022-09-28T01:08:46.027Z,82.20
2022-09-28T01:11:12.109Z,81.89
2022-09-28T01:13:38.203Z,82.02
2022-09-28T01:16:04.351Z,82.02
2022-09-28T01:18:30.455Z,82.12
2022-09-28T01:20:56.572Z,82.06
2022-09-28T01:23:22.685Z,82.40
2022-09-28T01:25:48.772Z,81.97
2022-09-28T01:28:14.867Z,82.53
2022-09-28T01:30:40.972Z,82.56
2022-09-28T01:33:07.090Z,82.63
2022-09-28T01:35:33.193Z,82.63
2022-09-28T01:37:59.322Z,82.31
2022-09-28T01:40:25.498Z,82.47
2022-09-28T01:42:51.637Z,82.76
2022-09-28T01:45:18.097Z,82.55
2022-09-28T01:47:44.176Z,82.45
2022-09-28T01:50:10.258Z,82.40
2022-09-28T01:52:36.380Z,82.20
2022-09-28T01:55:02.470Z,82.57
2022-09-28T01:57:28.558Z,82.32
2022-09-28T01:59:54.665Z,82.62
2022-09-28T02:02:20.865Z,82.78
2022-09-28T02:04:46.987Z,83.03
2022-09-28T02:07:13.103Z,83.07
2022-09-28T02:09:39.218Z,83.11
2022-09-28T02:12:05.300Z,83.06
2022-09-28T02:14:31.401Z,82.80
2022-09-28T02:16:57.498Z,82.88
2022-09-28T02:19:23.589Z,82.86
2022-09-28T02:21:49.693Z,82.84
2022-09-28T02:24:20.651Z,82.87
2022-09-28T02:26:47.588Z,83.20
2022-09-28T02:29:14.237Z,83.24
2022-09-28T02:31:40.445Z,83.20
2022-09-28T02:34:06.579Z,83.19
2022-09-28T02:36:32.693Z,83.21
2022-09-28T02:38:58.782Z,83.27
2022-09-28T02:41:24.864Z,83.33
2022-09-28T02:43:50.969Z,83.83
2022-09-28T02:46:17.097Z,83.74
2022-09-28T02:48:44.748Z,83.77
2022-09-28T02:51:13.340Z,84.03
2022-09-28T02:53:39.419Z,83.89
2022-09-28T02:56:05.517Z,83.99
2022-09-28T02:58:31.624Z,83.68
2022-09-28T03:00:57.754Z,83.96
2022-09-28T03:03:23.888Z,83.96
2022-09-28T03:05:49.998Z,84.32
2022-09-28T03:08:16.163Z,84.11
2022-09-28T03:10:42.267Z,84.23
2022-09-28T03:13:08.374Z,84.06
2022-09-28T03:15:34.453Z,84.38
2022-09-28T03:18:00.551Z,84.35
2022-09-28T03:20:26.672Z,84.21
2022-09-28T03:23:19.644Z,84.37
2022-09-28T03:25:38.835Z,84.30
2022-09-28T03:28:04.930Z,84.32
2022-09-28T03:30:31.036Z,83.98
2022-09-28T03:32:57.233Z,84.10
2022-09-28T03:35:23.316Z,84.08
2022-09-28T03:37:49.406Z,84.25
2022-09-28T03:40:15.587Z,84.08
2022-09-28T03:42:41.729Z,84.19
2022-09-28T03:45:07.816Z,84.07
2022-09-28T03:47:33.932Z,84.26
2022-09-28T03:50:00.035Z,84.71
2022-09-28T03:52:26.125Z,84.69
2022-09-28T03:54:52.519Z,84.67
2022-09-28T03:57:18.597Z,84.61
2022-09-28T03:59:44.673Z,84.86
2022-09-28T04:02:10.883Z,85.03
2022-09-28T04:04:37.006Z,84.89
2022-09-28T04:07:03.091Z,85.14
2022-09-28T04:09:29.187Z,85.07
2022-09-28T04:12:03.744Z,85.06
2022-09-28T04:14:30.530Z,84.84
2022-09-28T04:16:56.617Z,85.22
2022-09-28T04:19:22.708Z,85.35
2022-09-28T04:21:48.800Z,85.18
2022-09-28T04:24:14.897Z,85.30
2022-09-28T04:26:41.001Z,84.94
2022-09-28T04:29:07.171Z,85.14
2022-09-28T04:31:33.382Z,85.49
2022-09-28T04:36:43.446Z,85.62
2022-09-28T04:39:09.592Z,85.57
2022-09-28T04:41:35.701Z,85.49
2022-09-28T04:44:01.802Z,85.38
2022-09-28T04:46:27.883Z,85.92
2022-09-28T04:48:53.970Z,85.75
2022-09-28T04:51:20.109Z,85.94
2022-09-28T04:53:46.189Z,85.69
2022-09-28T04:56:12.285Z,85.87
2022-09-28T04:58:38.385Z,85.52
2022-09-28T05:01:04.552Z,86.08
2022-09-28T05:03:30.680Z,85.65
2022-09-28T05:05:56.777Z,86.14
2022-09-28T05:08:22.871Z,86.23
2022-09-28T05:10:49.250Z,86.19
2022-09-28T05:13:15.362Z,85.79
2022-09-28T05:15:41.440Z,85.94
2022-09-28T05:18:07.564Z,85.74
2022-09-28T05:20:33.686Z,85.91
2022-09-28T05:22:59.778Z,85.66
2022-09-28T05:25:25.864Z,85.70
2022-09-28T05:27:51.961Z,85.58
2022-09-28T05:30:18.052Z,85.98
2022-09-28T05:32:44.153Z,85.97
2022-09-28T05:35:10.279Z,85.69
2022-09-28T05:37:36.361Z,85.72
2022-09-28T05:40:02.450Z,85.69
2022-09-28T05:42:28.553Z,85.73
2022-09-28T05:44:54.666Z,85.66
2022-09-28T05:47:20.753Z,84.83
2022-09-28T05:49:46.861Z,85.21
2022-09-28T05:52:12.953Z,85.59
2022-09-28T05:54:39.098Z,85.34
2022-09-28T05:57:05.198Z,85.75
2022-09-28T05:59:31.278Z,85.57
2022-09-28T06:01:57.488Z,85.87
2022-09-28T06:04:23.618Z,85.91
2022-09-28T06:06:49.723Z,85.72
2022-09-28T06:09:15.826Z,85.54
2022-09-28T06:11:41.938Z,86.02
2022-09-28T06:14:08.034Z,86.00
2022-09-28T06:16:34.205Z,85.88
2022-09-28T06:19:00.344Z,85.69
2022-09-28T06:21:26.434Z,85.79
2022-09-28T06:23:52.530Z,85.69
2022-09-28T06:26:18.628Z,85.72
2022-09-28T06:28:44.726Z,85.73
2022-09-28T06:31:10.970Z,85.71
2022-09-28T06:33:37.214Z,85.35
2022-09-28T06:36:03.305Z,85.58
2022-09-28T06:38:29.398Z,85.35
2022-09-28T06:40:55.553Z,85.57
2022-09-28T06:43:21.652Z,85.87
2022-09-28T06:45:47.771Z,85.64
2022-09-28T06:48:13.943Z,85.76
2022-09-28T06:50:40.037Z,85.42
2022-09-28T06:53:06.149Z,85.52
2022-09-28T06:55:32.257Z,85.56
2022-09-28T06:57:58.334Z,85.58
2022-09-28T07:00:24.408Z,85.18
2022-09-28T07:02:50.512Z,85.05
2022-09-28T07:05:16.593Z,84.95
2022-09-28T07:07:42.726Z,85.20
2022-09-28T07:10:08.829Z,85.00
2022-09-28T07:12:34.926Z,84.93
2022-09-28T07:15:01.039Z,84.56
2022-09-28T07:17:27.174Z,84.55
2022-09-28T07:19:53.326Z,84.47
2022-09-28T07:22:22.144Z,84.41
2022-09-28T07:24:52.873Z,84.28
2022-09-28T07:27:18.968Z,84.36
2022-09-28T07:29:45.056Z,83.86
2022-09-28T07:32:11.168Z,84.17
2022-09-28T07:34:37.254Z,83.85
2022-09-28T07:37:03.387Z,83.74
2022-09-28T07:39:30.225Z,83.89
2022-09-28T07:41:59.671Z,83.93
2022-09-28T07:44:28.550Z,83.72
2022-09-28T07:46:55.537Z,83.78
2022-09-28T07:49:21.640Z,83.56
2022-09-28T07:51:47.737Z,83.61
2022-09-28T07:54:13.828Z,83.51
2022-09-28T07:56:39.904Z,83.78
2022-09-28T07:59:06.011Z,83.64
2022-09-28T08:01:32.158Z,83.78
2022-09-28T08:03:58.325Z,84.03
2022-09-28T08:06:24.432Z,83.82
2022-09-28T08:08:50.550Z,84.02
2022-09-28T08:11:16.659Z,84.36
2022-09-28T08:13:42.745Z,84.00
2022-09-28T08:16:08.836Z,84.36
2022-09-28T08:18:34.917Z,84.17
2022-09-28T08:21:01.007Z,84.25
2022-09-28T08:23:27.108Z,84.56
2022-09-28T08:25:53.198Z,84.54
2022-09-28T08:28:19.296Z,84.47
2022-09-28T08:30:45.446Z,84.63
2022-09-28T08:33:11.589Z,84.68
2022-09-28T08:35:37.693Z,84.49
2022-09-28T08:38:03.802Z,84.61
2022-09-28T08:40:29.933Z,84.86
2022-09-28T08:42:56.038Z,85.09
2022-09-28T08:45:23.202Z,84.98
2022-09-28T08:47:49.485Z,85.03
2022-09-28T08:50:15.564Z,84.81
2022-09-28T08:52:42.048Z,84.88
2022-09-28T08:55:08.132Z,84.90
2022-09-28T08:57:34.213Z,84.89
2022-09-28T09:00:00.313Z,85.21
2022-09-28T09:02:26.461Z,85.23
2022-09-28T09:04:52.569Z,85.32
2022-09-28T09:07:18.677Z,85.05
2022-09-28T09:09:44.759Z,85.02
2022-09-28T09:12:10.851Z,84.80
2022-09-28T09:14:36.949Z,85.03
2022-09-28T09:17:03.089Z,84.72
2022-09-28T09:19:29.210Z,84.69
2022-09-28T09:21:55.314Z,84.75
2022-09-28T09:24:21.399Z,85.02
2022-09-28T09:26:47.480Z,84.85
2022-09-28T09:29:13.589Z,84.75
2022-09-28T09:31:39.667Z,84.51
2022-09-28T09:34:05.761Z,84.43
2022-09-28T09:36:31.877Z,84.22
2022-09-28T09:38:57.970Z,84.40
2022-09-28T09:41:24.050Z,84.43
2022-09-28T09:43:50.156Z,84.08
2022-09-28T09:46:16.350Z,83.88
2022-09-28T09:48:42.585Z,84.03
2022-09-28T09:51:08.720Z,83.92
2022-09-28T09:53:37.687Z,83.64
2022-09-28T09:56:04.744Z,83.35
2022-09-28T09:58:30.899Z,83.13
2022-09-28T10:00:57.022Z,83.27
2022-09-28T10:03:23.267Z,83.13
2022-09-28T10:05:49.400Z,83.01
2022-09-28T10:08:15.484Z,82.83
2022-09-28T10:10:41.567Z,82.68
2022-09-28T10:13:07.677Z,82.82
2022-09-28T10:15:33.770Z,82.48
2022-09-28T10:17:59.851Z,82.67
2022-09-28T10:20:26.006Z,82.63
2022-09-28T10:22:52.099Z,82.62
2022-09-28T10:25:18.186Z,82.23
2022-09-28T10:27:44.288Z,82.44
2022-09-28T10:30:10.367Z,82.38
2022-09-28T10:32:36.453Z,82.26
2022-09-28T10:35:02.558Z,82.22
2022-09-28T10:37:28.640Z,81.94
2022-09-28T10:39:54.733Z,81.73
2022-09-28T10:42:20.869Z,81.54
2022-09-28T10:44:46.949Z,81.59
2022-09-28T10:47:13.045Z,81.47
2022-09-28T10:49:43.101Z,81.67
2022-09-28T10:52:12.086Z,81.21
2022-09-28T10:54:38.174Z,81.24
2022-09-28T10:57:04.298Z,81.04
2022-09-28T10:59:30.379Z,81.28
2022-09-28T11:01:56.468Z,80.72
2022-09-28T11:04:22.579Z,80.87
2022-09-28T11:06:48.700Z,80.87
2022-09-28T11:09:14.888Z,80.77
2022-09-28T11:11:41.056Z,80.46
2022-09-28T11:14:07.150Z,80.23
2022-09-28T11:16:33.284Z,80.08
2022-09-28T11:18:59.419Z,79.75
2022-09-28T11:21:25.524Z,79.64
2022-09-28T11:23:51.622Z,79.35
2022-09-28T11:26:18.914Z,79.34
2022-09-28T11:28:45.202Z,78.94
2022-09-28T11:31:11.389Z,78.63
2022-09-28T11:33:37.540Z,78.27
2022-09-28T11:36:03.628Z,78.03
2022-09-28T11:38:29.708Z,77.78
2022-09-28T11:40:55.889Z,77.41
2022-09-28T11:43:22.011Z,77.35
2022-09-28T11:45:48.154Z,77.00
2022-09-28T11:48:14.294Z,76.73
2022-09-28T11:50:40.386Z,76.45
2022-09-28T11:53:06.465Z,76.54
2022-09-28T11:55:32.595Z,76.58
2022-09-28T11:57:58.676Z,76.33
2022-09-28T12:00:24.765Z,76.10
2022-09-28T12:02:51.648Z,75.85
2022-09-28T12:05:20.892Z,75.41
2022-09-28T12:07:47.316Z,75.18
2022-09-28T12:10:13.434Z,74.89
2022-09-28T12:12:39.526Z,74.56
2022-09-28T12:15:05.616Z,74.45
2022-09-28T12:17:31.785Z,74.67
2022-09-28T12:19:57.903Z,74.60
2022-09-28T12:22:23.999Z,74.44
2022-09-28T12:24:50.105Z,74.19
2022-09-28T12:27:16.206Z,74.17
2022-09-28T12:29:42.289Z,73.80
2022-09-28T12:32:08.393Z,73.78
2022-09-28T12:34:34.483Z,73.47
2022-09-28T12:37:00.567Z,73.63
2022-09-28T12:39:40.781Z,73.14
2022-09-28T12:42:12.759Z,72.99
2022-09-28T12:44:38.880Z,72.74
2022-09-28T12:47:05.008Z,72.73
2022-09-28T12:52:17.312Z,72.58
2022-09-28T12:54:43.421Z,72.46
2022-09-28T12:57:09.505Z,72.57
2022-09-28T12:59:35.601Z,72.56
2022-09-28T13:02:01.690Z,72.38
2022-09-28T13:04:27.790Z,72.60
2022-09-28T13:06:54.393Z,72.28
2022-09-28T13:09:20.481Z,72.23
2022-09-28T13:11:46.574Z,72.05
2022-09-28T13:14:12.689Z,72.25
2022-09-28T13:16:38.771Z,71.98
2022-09-28T13:19:04.858Z,72.04
2022-09-28T13:21:30.968Z,72.30
2022-09-28T13:24:08.731Z,72.05
2022-09-28T13:26:43.128Z,72.34
2022-09-28T13:29:09.213Z,72.63
2022-09-28T13:31:37.147Z,72.68
2022-09-28T13:34:05.719Z,72.98
2022-09-28T13:36:31.822Z,73.29
2022-09-28T13:38:57.909Z,73.44
2022-09-28T13:41:24.032Z,73.75
2022-09-28T13:43:50.131Z,73.89
2022-09-28T13:46:16.315Z,74.12
2022-09-28T13:48:42.535Z,74.30
2022-09-28T13:51:08.618Z,74.55
2022-09-28T13:53:34.701Z,74.83
2022-09-28T13:56:01.655Z,74.96
2022-09-28T13:58:27.748Z,75.01
2022-09-28T14:00:53.854Z,75.29
2022-09-28T14:03:19.977Z,75.42
2022-09-28T14:05:46.086Z,75.68
2022-09-28T14:08:12.182Z,75.79
2022-09-28T14:10:38.334Z,75.55
2022-09-28T14:13:06.613Z,75.56
2022-09-28T14:15:34.748Z,75.74
2022-09-28T14:18:00.884Z,75.84
2022-09-28T14:20:26.963Z,75.73
2022-09-28T14:22:53.044Z,75.41
2022-09-28T14:25:19.159Z,75.28
2022-09-28T14:27:45.270Z,75.19
2022-09-28T14:30:11.368Z,74.89
2022-09-28T14:32:37.487Z,75.03
2022-09-28T14:35:03.593Z,74.68
2022-09-28T14:37:29.677Z,74.77
2022-09-28T14:39:55.781Z,74.61
2022-09-28T14:42:21.870Z,74.33
2022-09-28T14:44:47.953Z,74.16
2022-09-28T14:47:14.057Z,74.08
2022-09-28T14:49:40.160Z,73.75
2022-09-28T14:52:06.240Z,73.57
2022-09-28T14:54:32.349Z,73.32
2022-09-28T14:56:58.443Z,73.38
2022-09-28T14:59:24.542Z,73.07
2022-09-28T15:01:50.656Z,73.05
2022-09-28T15:04:16.975Z,73.05
2022-09-28T15:06:43.237Z,73.21
2022-09-28T15:09:09.359Z,73.07
2022-09-28T15:11:35.462Z,73.15
2022-09-28T15:14:01.612Z,73.26
2022-09-28T15:16:27.722Z,73.31
2022-09-28T15:18:53.805Z,73.35
2022-09-28T15:21:19.898Z,73.52
2022-09-28T15:23:46.019Z,73.91
2022-09-28T15:26:12.142Z,73.78
2022-09-28T15:28:38.224Z,74.02
2022-09-28T15:31:04.376Z,73.99
2022-09-28T15:33:30.505Z,74.03
2022-09-28T15:35:56.617Z,74.41
2022-09-28T15:38:22.704Z,74.55
2022-09-28T15:40:48.832Z,74.54
2022-09-28T15:43:14.979Z,74.58
2022-09-28T15:45:41.104Z,74.75
2022-09-28T15:48:07.201Z,74.73
2022-09-28T15:50:34.024Z,75.15
2022-09-28T15:53:00.137Z,75.06
2022-09-28T15:55:26.220Z,75.10
2022-09-28T15:57:52.304Z,75.03
2022-09-28T16:00:18.412Z,74.85
2022-09-28T16:02:44.557Z,74.79
2022-09-28T16:05:10.675Z,74.90
2022-09-28T16:07:36.772Z,74.81
2022-09-28T16:10:03.016Z,74.72
2022-09-28T16:12:30.275Z,74.92
2022-09-28T16:14:56.846Z,75.07
2022-09-28T16:17:22.935Z,74.95
2022-09-28T16:19:49.025Z,74.93
2022-09-28T16:22:15.117Z,75.11
2022-09-28T16:24:41.211Z,75.07
2022-09-28T16:27:08.341Z,74.98
2022-09-28T16:29:34.458Z,74.97
2022-09-28T16:32:00.560Z,74.86
2022-09-28T16:34:26.633Z,74.90
2022-09-28T16:36:53.916Z,74.79
2022-09-28T16:39:22.324Z,74.87
2022-09-28T16:41:48.420Z,74.53
2022-09-28T16:44:14.534Z,74.86
2022-09-28T16:46:40.705Z,74.86
2022-09-28T16:49:06.848Z,74.88
2022-09-28T16:51:32.953Z,74.93
2022-09-28T16:53:59.032Z,74.90
2022-09-28T16:56:25.114Z,74.89
2022-09-28T16:58:51.212Z,75.07
2022-09-28T17:01:17.334Z,75.01
2022-09-28T17:03:43.487Z,75.16
2022-09-28T17:06:09.991Z,75.11
2022-09-28T17:08:36.102Z,75.17
2022-09-28T17:11:22.836Z,75.08
2022-09-28T17:13:48.282Z,74.87
2022-09-28T17:16:14.459Z,75.10
2022-09-28T17:18:40.634Z,75.11
2022-09-28T17:21:06.842Z,75.01
2022-09-28T17:23:32.914Z,75.08
2022-09-28T17:25:59.005Z,75.15
2022-09-28T17:28:26.869Z,75.17
2022-09-28T17:30:53.025Z,75.13
2022-09-28T17:33:19.168Z,75.09
2022-09-28T17:35:45.299Z,74.94
2022-09-28T17:38:11.450Z,75.03
2022-09-28T17:40:37.599Z,75.11
2022-09-28T17:43:03.762Z,75.12
2022-09-28T17:45:29.923Z,75.16
2022-09-28T17:47:56.036Z,75.12
2022-09-28T17:50:22.141Z,75.13
2022-09-28T17:52:48.228Z,75.06
2022-09-28T17:55:14.317Z,75.17
2022-09-28T17:57:40.430Z,75.07
2022-09-28T18:00:06.527Z,75.34
2022-09-28T18:02:32.652Z,75.37
2022-09-28T18:04:59.192Z,75.10
2022-09-28T18:07:25.472Z,75.12
2022-09-28T18:09:51.552Z,75.15
2022-09-28T18:12:17.671Z,75.06
2022-09-28T18:14:43.774Z,75.24
2022-09-28T18:17:09.870Z,75.23
2022-09-28T18:19:35.982Z,75.23
2022-09-28T18:22:02.085Z,75.10
2022-09-28T18:24:28.174Z,75.15
2022-09-28T18:26:54.276Z,75.28
2022-09-28T18:29:20.366Z,75.30
2022-09-28T18:31:46.460Z,75.35
2022-09-28T18:34:12.569Z,75.34
2022-09-28T18:36:38.730Z,75.26
2022-09-28T18:39:04.829Z,75.35
2022-09-28T18:41:30.932Z,75.37
2022-09-28T18:43:57.022Z,75.32
2022-09-28T18:46:23.217Z,75.41
2022-09-28T18:48:49.391Z,75.43
2022-09-28T18:51:15.485Z,75.43
2022-09-28T18:53:41.584Z,75.42
2022-09-28T18:56:07.697Z,75.53
2022-09-28T18:58:33.778Z,75.49
2022-09-28T19:01:18.716Z,75.71
2022-09-28T19:03:45.970Z,75.48
2022-09-28T19:06:12.079Z,75.56
2022-09-28T19:08:38.373Z,75.49
2022-09-28T19:11:04.547Z,75.46
2022-09-28T19:13:30.654Z,75.63
2022-09-28T19:15:56.801Z,75.58
2022-09-28T19:18:22.934Z,75.66
2022-09-28T19:20:49.023Z,75.31
2022-09-28T19:23:15.110Z,75.43
2022-09-28T19:25:41.484Z,75.27
2022-09-28T19:28:07.603Z,75.52
2022-09-28T19:30:33.720Z,75.66
2022-09-28T19:32:59.834Z,75.56
2022-09-28T19:35:25.920Z,75.19
2022-09-28T19:37:52.009Z,75.42
2022-09-28T19:40:18.178Z,75.17
2022-09-28T19:42:44.327Z,75.26
2022-09-28T19:45:10.421Z,75.33
2022-09-28T19:47:36.532Z,75.45
2022-09-28T19:50:02.623Z,75.27
2022-09-28T19:52:28.718Z,75.23
2022-09-28T19:54:54.832Z,75.29
2022-09-28T19:57:20.926Z,75.28
2022-09-28T19:59:52.034Z,75.30
2022-09-28T20:02:18.785Z,75.31
2022-09-28T20:04:44.957Z,75.25
2022-09-28T20:07:11.054Z,75.46
2022-09-28T20:09:37.688Z,75.32
2022-09-28T20:12:03.795Z,75.17
2022-09-28T20:14:33.134Z,75.53
2022-09-28T20:17:03.982Z,75.32
2022-09-28T20:19:30.071Z,75.31
2022-09-28T20:21:56.158Z,75.31
2022-09-28T20:24:22.271Z,75.47
2022-09-28T20:26:48.393Z,75.57
2022-09-28T20:29:14.531Z,75.56
2022-09-28T20:31:40.694Z,75.44
2022-09-28T20:34:06.814Z,75.81
2022-09-28T20:36:32.899Z,75.74
2022-09-28T20:38:59.063Z,75.72
2022-09-28T20:41:25.205Z,76.06
2022-09-28T20:43:51.295Z,75.74
2022-09-28T20:46:17.644Z,76.21
2022-09-28T20:48:43.772Z,76.08
2022-09-28T20:51:09.868Z,76.28
2022-09-28T20:53:36.020Z,76.35
2022-09-28T20:56:02.156Z,76.05
2022-09-28T20:58:28.245Z,76.55
2022-09-28T21:00:54.372Z,76.24
2022-09-28T21:03:20.459Z,76.30
2022-09-28T21:05:46.545Z,76.54
2022-09-28T21:08:12.666Z,76.45
2022-09-28T21:10:38.784Z,76.60
2022-09-28T21:13:04.884Z,76.85
2022-09-28T21:15:31.606Z,76.78
2022-09-28T21:17:57.755Z,76.78
2022-09-28T21:20:23.841Z,76.71
2022-09-28T21:22:49.957Z,76.90
2022-09-28T21:25:16.035Z,76.95
2022-09-28T21:27:42.174Z,77.14
2022-09-28T21:30:08.326Z,76.92
2022-09-28T21:32:34.576Z,77.07
2022-09-28T21:35:00.860Z,76.97
2022-09-28T21:37:27.140Z,77.11
2022-09-28T21:39:53.277Z,77.15
2022-09-28T21:42:19.510Z,77.01
2022-09-28T21:44:45.695Z,77.14
2022-09-28T21:47:11.906Z,77.42
2022-09-28T21:49:37.995Z,77.16
2022-09-28T21:52:04.110Z,77.22
2022-09-28T21:54:30.198Z,77.17
2022-09-28T21:56:56.273Z,77.30
2022-09-28T21:59:22.389Z,77.55
2022-09-28T22:01:48.542Z,77.33
2022-09-28T22:04:14.754Z,77.69
2022-09-28T22:06:40.974Z,77.64
2022-09-28T22:09:07.072Z,77.80
2022-09-28T22:11:33.160Z,77.97
2022-09-28T22:13:59.454Z,77.47
2022-09-28T22:16:25.655Z,77.63
2022-09-28T22:18:51.919Z,77.50
2022-09-28T22:21:18.047Z,77.73
2022-09-28T22:23:44.226Z,77.66
2022-09-28T22:26:10.363Z,77.47
2022-09-28T22:28:36.459Z,77.72
2022-09-28T22:31:02.658Z,77.40
2022-09-28T22:33:28.791Z,77.41
2022-09-28T22:35:54.964Z,77.78
2022-09-28T22:38:21.101Z,77.76
2022-09-28T22:40:47.437Z,77.50
2022-09-28T22:43:13.678Z,77.74
2022-09-28T22:45:39.844Z,77.99
2022-09-28T22:48:06.082Z,77.72
2022-09-28T22:50:32.237Z,78.09
2022-09-28T22:52:58.375Z,78.20
2022-09-28T22:55:24.465Z,78.28
2022-09-28T22:57:50.613Z,78.25
2022-09-28T23:00:16.761Z,78.28
2022-09-28T23:02:42.894Z,78.41
2022-09-28T23:05:09.100Z,78.18
2022-09-28T23:07:35.236Z,78.18
2022-09-28T23:10:01.312Z,78.41
2022-09-28T23:12:27.964Z,78.31
2022-09-28T23:14:54.102Z,78.20
2022-09-28T23:17:20.298Z,78.55
2022-09-28T23:19:46.570Z,78.33
2022-09-28T23:22:12.847Z,78.53
2022-09-28T23:24:38.936Z,78.46
2022-09-28T23:27:05.173Z,78.61
2022-09-28T23:29:31.267Z,78.92
2022-09-28T23:32:00.486Z,78.97
2022-09-28T23:34:26.635Z,78.65
2022-09-28T23:36:52.721Z,79.04
2022-09-28T23:39:19.065Z,79.01
2022-09-28T23:41:46.258Z,79.08
2022-09-28T23:44:12.459Z,79.30
2022-09-28T23:46:38.609Z,79.15
2022-09-28T23:49:04.724Z,79.15
2022-09-28T23:51:30.813Z,79.10
2022-09-28T23:53:56.946Z,79.27
2022-09-28T23:56:23.084Z,79.10
2022-09-28T23:58:49.180Z,79.08
